createdAt,value
2023-04-22T00:00:33.909Z,6.44
2023-04-22T00:03:00.812Z,6.61
2023-04-22T00:05:27.882Z,6.19
2023-04-22T00:07:54.738Z,6.21
2023-04-22T00:10:21.483Z,6.25
2023-04-22T00:12:48.157Z,6.10
2023-04-22T00:15:14.965Z,6.16
2023-04-22T00:17:41.772Z,5.81
2023-04-22T00:20:09.109Z,6.02
2023-04-22T00:22:35.885Z,6.01
2023-04-22T00:25:02.584Z,5.83
2023-04-22T00:27:29.385Z,5.82
2023-04-22T00:29:56.131Z,5.83
2023-04-22T00:32:22.898Z,5.50
2023-04-22T00:34:49.554Z,5.86
2023-04-22T00:37:16.282Z,5.60
2023-04-22T00:39:43.384Z,5.82
2023-04-22T00:42:10.198Z,5.57
2023-04-22T00:44:37.019Z,5.77
2023-04-22T00:47:04.166Z,5.63
2023-04-22T00:49:30.941Z,5.49
2023-04-22T00:51:57.718Z,5.69
2023-04-22T00:54:24.551Z,5.39
2023-04-22T00:56:51.288Z,5.39
2023-04-22T00:59:18.044Z,5.58
2023-04-22T01:01:44.836Z,5.36
2023-04-22T01:04:11.682Z,5.48
2023-04-22T01:06:38.544Z,5.42
2023-04-22T01:09:05.240Z,5.32
2023-04-22T01:11:31.936Z,5.52
2023-04-22T01:13:58.722Z,5.09
2023-04-22T01:16:25.513Z,4.98
2023-04-22T01:18:52.308Z,5.12
2023-04-22T01:21:19.011Z,5.37
2023-04-22T01:23:45.766Z,5.26
2023-04-22T01:26:12.494Z,4.75
2023-04-22T01:28:39.275Z,4.79
2023-04-22T01:31:06.141Z,5.09
2023-04-22T01:33:33.437Z,4.74
2023-04-22T01:36:00.296Z,4.91
2023-04-22T01:38:27.154Z,4.79
2023-04-22T01:40:54.043Z,4.82
2023-04-22T01:43:20.888Z,4.70
2023-04-22T01:45:47.768Z,4.61
2023-04-22T01:48:14.568Z,4.86
2023-04-22T01:50:41.302Z,4.63
2023-04-22T01:53:08.034Z,4.49
2023-04-22T01:55:34.829Z,4.64
2023-04-22T01:58:02.301Z,4.37
2023-04-22T02:00:29.170Z,4.61
2023-04-22T02:02:56.105Z,4.72
2023-04-22T02:05:23.106Z,4.64
2023-04-22T02:07:53.389Z,4.52
2023-04-22T02:10:20.558Z,4.14
2023-04-22T02:12:47.287Z,4.44
2023-04-22T02:15:14.032Z,4.49
2023-04-22T02:17:41.604Z,4.14
2023-04-22T02:20:08.815Z,4.21
2023-04-22T02:22:35.566Z,4.57
2023-04-22T02:25:02.343Z,4.40
2023-04-22T02:27:29.113Z,4.49
2023-04-22T02:29:55.909Z,4.38
2023-04-22T02:32:22.589Z,4.52
2023-04-22T02:34:49.382Z,4.37
2023-04-22T02:37:16.060Z,4.44
2023-04-22T02:39:43.004Z,4.20
2023-04-22T02:42:10.049Z,4.32
2023-04-22T02:44:36.715Z,4.08
2023-04-22T02:47:03.435Z,4.15
2023-04-22T02:49:30.104Z,4.19
2023-04-22T02:51:57.387Z,4.19
2023-04-22T02:54:24.048Z,4.42
2023-04-22T02:56:50.727Z,4.08
2023-04-22T02:59:17.404Z,4.02
2023-04-22T03:01:44.143Z,4.18
2023-04-22T03:04:11.265Z,4.39
2023-04-22T03:06:38.006Z,4.20
2023-04-22T03:09:04.705Z,3.90
2023-04-22T03:11:31.440Z,3.99
2023-04-22T03:13:58.145Z,4.10
2023-04-22T03:16:24.883Z,4.14
2023-04-22T03:18:51.785Z,4.22
2023-04-22T03:21:18.509Z,4.02
2023-04-22T03:23:45.394Z,4.00
2023-04-22T03:26:12.125Z,4.00
2023-04-22T03:28:38.872Z,3.74
2023-04-22T03:31:05.629Z,4.22
2023-04-22T03:33:32.349Z,3.86
2023-04-22T03:35:59.076Z,3.74
2023-04-22T03:38:25.784Z,4.01
2023-04-22T03:40:52.521Z,3.77
2023-04-22T03:43:19.285Z,3.87
2023-04-22T03:45:46.653Z,3.68
2023-04-22T03:48:13.367Z,3.63
2023-04-22T03:50:40.024Z,3.80
2023-04-22T03:53:06.654Z,3.84
2023-04-22T03:55:33.745Z,3.71
2023-04-22T03:58:00.487Z,3.63
2023-04-22T04:00:27.257Z,3.81
2023-04-22T04:02:54.018Z,3.90
2023-04-22T04:05:20.826Z,3.81
2023-04-22T04:07:47.532Z,3.83
2023-04-22T04:10:14.180Z,3.72
2023-04-22T04:12:40.825Z,3.83
2023-04-22T04:15:07.915Z,3.63
2023-04-22T04:17:34.607Z,3.82
2023-04-22T04:20:01.353Z,3.79
2023-04-22T04:22:28.043Z,3.81
2023-04-22T04:24:55.043Z,3.68
2023-04-22T04:27:22.584Z,3.76
2023-04-22T04:29:49.366Z,3.54
2023-04-22T04:32:16.085Z,3.54
2023-04-22T04:34:42.825Z,3.76
2023-04-22T04:37:09.552Z,3.63
2023-04-22T04:39:36.209Z,3.38
2023-04-22T04:42:02.891Z,3.62
2023-04-22T04:44:29.778Z,3.34
2023-04-22T04:46:56.486Z,3.53
2023-04-22T04:49:23.548Z,3.27
2023-04-22T04:51:50.256Z,3.57
2023-04-22T04:54:16.972Z,3.58
2023-04-22T04:56:43.679Z,3.50
2023-04-22T04:59:10.428Z,3.58
2023-04-22T05:01:37.214Z,3.58
2023-04-22T05:04:04.275Z,3.63
2023-04-22T05:06:31.104Z,3.45
2023-04-22T05:08:57.769Z,3.52
2023-04-22T05:11:24.518Z,3.49
2023-04-22T05:13:51.308Z,3.64
2023-04-22T05:16:18.034Z,3.55
2023-04-22T05:18:44.810Z,3.71
2023-04-22T05:21:11.573Z,3.21
2023-04-22T05:23:38.317Z,3.46
2023-04-22T05:26:05.065Z,3.41
2023-04-22T05:28:31.736Z,3.37
2023-04-22T05:30:58.518Z,3.48
2023-04-22T05:33:26.303Z,3.55
2023-04-22T05:35:53.114Z,3.77
2023-04-22T05:38:19.935Z,3.45
2023-04-22T05:40:46.669Z,3.84
2023-04-22T05:43:13.700Z,4.18
2023-04-22T05:45:40.443Z,4.42
2023-04-22T05:48:07.263Z,4.64
2023-04-22T05:50:34.026Z,4.77
2023-04-22T05:53:00.715Z,4.60
2023-04-22T05:55:27.489Z,4.70
2023-04-22T05:57:54.197Z,4.73
2023-04-22T06:00:20.899Z,4.72
2023-04-22T06:02:47.703Z,4.50
2023-04-22T06:05:14.673Z,4.49
2023-04-22T06:07:41.533Z,4.22
2023-04-22T06:10:09.018Z,4.34
2023-04-22T06:12:35.810Z,4.17
2023-04-22T06:15:02.532Z,3.94
2023-04-22T06:17:29.260Z,3.79
2023-04-22T06:19:56.028Z,3.87
2023-04-22T06:22:22.773Z,3.72
2023-04-22T06:24:49.515Z,3.60
2023-04-22T06:27:16.217Z,3.85
2023-04-22T06:29:42.982Z,3.58
2023-04-22T06:32:09.656Z,3.90
2023-04-22T06:34:36.388Z,3.86
2023-04-22T06:37:03.208Z,3.87
2023-04-22T06:39:29.952Z,3.57
2023-04-22T06:41:56.844Z,3.56
2023-04-22T06:44:23.621Z,3.37
2023-04-22T06:46:50.370Z,3.31
2023-04-22T06:49:17.170Z,3.52
2023-04-22T06:51:43.907Z,3.16
2023-04-22T06:54:10.659Z,3.58
2023-04-22T06:56:37.278Z,3.24
2023-04-22T06:59:03.942Z,3.34
2023-04-22T07:01:30.655Z,3.56
2023-04-22T07:03:57.547Z,3.52
2023-04-22T07:06:24.442Z,3.26
2023-04-22T07:08:51.101Z,3.18
2023-04-22T07:11:17.792Z,3.24
2023-04-22T07:13:44.532Z,3.80
2023-04-22T07:16:11.294Z,3.62
2023-04-22T07:18:38.047Z,3.19
2023-04-22T07:21:04.746Z,3.21
2023-04-22T07:23:31.449Z,3.58
2023-04-22T07:25:58.104Z,3.19
2023-04-22T07:28:24.800Z,3.34
2023-04-22T07:30:51.478Z,3.39
2023-04-22T07:33:18.183Z,2.98
2023-04-22T07:35:44.849Z,3.12
2023-04-22T07:38:13.378Z,2.99
2023-04-22T07:40:41.335Z,3.22
2023-04-22T07:43:08.128Z,3.19
2023-04-22T07:45:34.961Z,3.34
2023-04-22T07:48:01.960Z,3.22
2023-04-22T07:50:28.669Z,3.01
2023-04-22T07:52:55.376Z,3.18
2023-04-22T07:55:22.165Z,2.86
2023-04-22T07:57:48.931Z,3.41
2023-04-22T08:00:15.956Z,2.61
2023-04-22T08:02:42.884Z,3.04
2023-04-22T08:05:10.314Z,3.12
2023-04-22T08:07:37.096Z,3.10
2023-04-22T08:10:04.378Z,3.00
2023-04-22T08:12:31.074Z,2.86
2023-04-22T08:14:57.740Z,3.10
2023-04-22T08:17:24.529Z,3.08
2023-04-22T08:19:51.196Z,2.95
2023-04-22T08:22:17.963Z,2.89
2023-04-22T08:24:44.714Z,3.12
2023-04-22T08:27:11.399Z,3.04
2023-04-22T08:29:38.463Z,2.96
2023-04-22T08:32:05.493Z,3.09
2023-04-22T08:34:32.242Z,3.26
2023-04-22T08:36:58.967Z,2.84
2023-04-22T08:39:25.702Z,2.96
2023-04-22T08:41:52.478Z,3.04
2023-04-22T08:44:19.585Z,2.84
2023-04-22T08:46:46.373Z,2.93
2023-04-22T08:49:15.182Z,3.05
2023-04-22T08:51:42.816Z,2.82
2023-04-22T08:54:09.597Z,2.81
2023-04-22T08:56:36.288Z,2.88
2023-04-22T08:59:04.038Z,3.09
2023-04-22T09:01:31.579Z,3.07
2023-04-22T09:04:01.641Z,3.06
2023-04-22T09:06:28.498Z,3.10
2023-04-22T09:08:55.222Z,3.01
2023-04-22T09:11:21.914Z,3.10
2023-04-22T09:13:48.627Z,2.93
2023-04-22T09:16:15.433Z,2.98
2023-04-22T09:18:42.776Z,3.07
2023-04-22T09:21:09.483Z,2.93
2023-04-22T09:23:49.681Z,3.13
2023-04-22T09:26:16.498Z,2.79
2023-04-22T09:28:56.848Z,2.79
2023-04-22T09:31:23.950Z,2.73
2023-04-22T09:33:55.527Z,2.75
2023-04-22T09:36:22.561Z,2.81
2023-04-22T09:38:59.249Z,2.83
2023-04-22T09:41:46.113Z,3.09
2023-04-22T09:44:17.054Z,2.90
2023-04-22T09:46:44.388Z,2.77
2023-04-22T09:49:11.279Z,3.03
2023-04-22T09:51:40.668Z,2.87
2023-04-22T09:54:08.108Z,3.08
2023-04-22T09:56:48.023Z,2.99
2023-04-22T09:59:24.864Z,2.90
2023-04-22T10:02:01.879Z,2.97
2023-04-22T10:04:28.930Z,2.80
2023-04-22T10:06:55.707Z,2.84
2023-04-22T10:09:23.443Z,2.88
2023-04-22T10:11:51.342Z,3.02
2023-04-22T10:14:18.246Z,3.04
2023-04-22T10:16:46.331Z,3.06
2023-04-22T10:19:16.807Z,3.05
2023-04-22T10:21:44.519Z,3.15
2023-04-22T10:24:17.804Z,2.74
2023-04-22T10:27:10.846Z,3.04
2023-04-22T10:29:39.134Z,2.70
2023-04-22T10:32:18.132Z,3.45
2023-04-22T10:34:46.673Z,7.93
2023-04-22T10:37:14.071Z,15.04
2023-04-22T10:39:42.016Z,21.86
2023-04-22T10:42:13.132Z,26.82
2023-04-22T10:44:48.900Z,31.13
2023-04-22T10:47:37.894Z,33.32
2023-04-22T10:50:12.313Z,39.49
2023-04-22T10:52:39.571Z,103.80
2023-04-22T10:55:06.128Z,260.56
2023-04-22T10:57:41.067Z,280.49
2023-04-22T11:00:17.952Z,321.38
2023-04-22T11:02:45.782Z,307.02
2023-04-22T11:05:38.937Z,318.98
2023-04-22T11:08:08.137Z,305.14
2023-04-22T11:10:38.809Z,294.78
2023-04-22T11:13:05.561Z,289.04
2023-04-22T11:15:32.358Z,279.00
2023-04-22T11:17:59.215Z,280.96
2023-04-22T11:20:26.029Z,266.95
2023-04-22T11:22:54.280Z,260.99
2023-04-22T11:25:21.661Z,254.89
2023-04-22T11:27:48.496Z,247.64
2023-04-22T11:30:16.980Z,247.75
2023-04-22T11:32:55.752Z,243.03
2023-04-22T11:35:27.189Z,237.38
2023-04-22T11:37:55.431Z,234.14
2023-04-22T11:40:30.533Z,229.17
2023-04-22T11:42:59.434Z,227.17
2023-04-22T11:45:26.344Z,224.60
2023-04-22T11:47:53.207Z,222.58
2023-04-22T11:50:39.616Z,220.43
2023-04-22T11:53:21.844Z,217.45
2023-04-22T11:55:50.265Z,213.74
2023-04-22T11:58:20.872Z,211.19
2023-04-22T12:00:49.308Z,207.75
2023-04-22T12:03:20.633Z,206.72
2023-04-22T12:05:52.285Z,202.47
2023-04-22T12:08:40.022Z,200.53
2023-04-22T12:11:07.826Z,193.27
2023-04-22T12:13:42.344Z,188.03
2023-04-22T12:16:17.081Z,178.15
2023-04-22T12:18:54.021Z,174.31
2023-04-22T12:21:25.183Z,173.76
2023-04-22T12:24:02.077Z,171.30
2023-04-22T12:26:28.837Z,168.76
2023-04-22T12:28:56.547Z,165.40
2023-04-22T12:31:23.334Z,162.23
2023-04-22T12:33:50.321Z,162.42
2023-04-22T12:36:17.978Z,158.64
2023-04-22T12:38:44.679Z,158.53
2023-04-22T12:41:11.606Z,156.38
2023-04-22T12:43:38.493Z,154.92
2023-04-22T12:46:06.149Z,153.93
2023-04-22T12:48:33.248Z,154.47
2023-04-22T12:51:00.171Z,151.20
2023-04-22T12:53:27.431Z,150.21
2023-04-22T12:55:54.471Z,149.75
2023-04-22T12:58:21.293Z,148.47
2023-04-22T13:00:48.064Z,146.40
2023-04-22T13:03:14.904Z,143.98
2023-04-22T13:05:41.989Z,143.53
2023-04-22T13:08:08.770Z,143.50
2023-04-22T13:10:37.538Z,142.52
2023-04-22T13:13:15.836Z,141.79
2023-04-22T13:15:45.324Z,140.53
2023-04-22T13:18:12.135Z,137.63
2023-04-22T13:20:39.010Z,138.47
2023-04-22T13:23:05.779Z,137.07
2023-04-22T13:25:32.579Z,135.94
2023-04-22T13:27:59.293Z,136.35
2023-04-22T13:30:26.093Z,134.73
2023-04-22T13:32:55.239Z,131.26
2023-04-22T13:35:21.950Z,131.52
2023-04-22T13:37:48.690Z,127.43
2023-04-22T13:40:15.396Z,126.76
2023-04-22T13:42:42.132Z,122.78
2023-04-22T13:45:09.438Z,122.91
2023-04-22T13:47:36.161Z,122.97
2023-04-22T13:50:02.995Z,121.47
2023-04-22T13:52:29.900Z,120.53
2023-04-22T13:54:56.668Z,117.83
2023-04-22T13:57:23.483Z,118.29
2023-04-22T13:59:50.362Z,117.60
2023-04-22T14:02:17.260Z,116.43
2023-04-22T14:04:44.138Z,117.23
2023-04-22T14:07:10.895Z,114.83
2023-04-22T14:09:37.777Z,115.79
2023-04-22T14:12:05.301Z,112.60
2023-04-22T14:14:32.135Z,113.47
2023-04-22T14:16:59.082Z,111.79
2023-04-22T14:19:25.834Z,111.07
2023-04-22T14:21:52.588Z,111.67
2023-04-22T14:24:19.327Z,111.41
2023-04-22T14:26:46.150Z,108.70
2023-04-22T14:29:13.074Z,109.46
2023-04-22T14:31:39.964Z,107.26
2023-04-22T14:34:06.678Z,107.70
2023-04-22T14:36:33.595Z,105.80
2023-04-22T14:39:00.318Z,104.41
2023-04-22T14:41:26.974Z,103.41
2023-04-22T14:43:53.705Z,102.28
2023-04-22T14:46:20.524Z,103.88
2023-04-22T14:48:47.308Z,103.19
2023-04-22T14:51:14.086Z,102.65
2023-04-22T14:53:40.883Z,102.57
2023-04-22T14:56:07.906Z,100.27
2023-04-22T14:58:34.709Z,100.91
2023-04-22T15:01:01.458Z,101.14
2023-04-22T15:03:28.355Z,99.97
2023-04-22T15:05:55.615Z,99.11
2023-04-22T15:08:22.481Z,98.76
2023-04-22T15:10:49.251Z,98.70
2023-04-22T15:13:16.056Z,97.55
2023-04-22T15:15:42.905Z,97.80
2023-04-22T15:18:09.640Z,96.05
2023-04-22T15:20:36.363Z,96.60
2023-04-22T15:23:03.151Z,95.13
2023-04-22T15:25:30.059Z,97.37
2023-04-22T15:27:56.916Z,95.60
2023-04-22T15:30:23.839Z,94.75
2023-04-22T15:32:50.562Z,93.86
2023-04-22T15:35:17.375Z,91.27
2023-04-22T15:37:45.107Z,90.59
2023-04-22T15:40:11.851Z,90.35
2023-04-22T15:42:38.617Z,88.40
2023-04-22T15:45:06.187Z,89.68
2023-04-22T15:47:33.285Z,88.07
2023-04-22T15:50:00.114Z,85.57
2023-04-22T15:52:28.048Z,85.04
2023-04-22T15:54:54.767Z,84.97
2023-04-22T15:57:21.584Z,85.42
2023-04-22T15:59:51.475Z,83.80
2023-04-22T16:02:23.201Z,83.50
2023-04-22T16:04:50.055Z,80.94
2023-04-22T16:07:18.846Z,81.72
2023-04-22T16:09:46.408Z,81.73
2023-04-22T16:12:13.160Z,81.33
2023-04-22T16:14:39.840Z,80.14
2023-04-22T16:17:06.601Z,81.80
2023-04-22T16:19:33.433Z,81.07
2023-04-22T16:22:00.233Z,82.24
2023-04-22T16:24:27.021Z,80.75
2023-04-22T16:26:53.765Z,80.79
2023-04-22T16:29:20.496Z,81.62
2023-04-22T16:31:47.273Z,79.94
2023-04-22T16:34:14.428Z,80.16
2023-04-22T16:36:42.866Z,79.96
2023-04-22T16:39:09.720Z,79.40
2023-04-22T16:41:37.050Z,80.17
2023-04-22T16:44:03.820Z,79.21
2023-04-22T16:46:30.665Z,77.18
2023-04-22T16:48:57.382Z,77.34
2023-04-22T16:51:24.107Z,78.86
2023-04-22T16:53:50.792Z,76.87
2023-04-22T16:56:17.544Z,77.64
2023-04-22T16:58:44.315Z,77.90
2023-04-22T17:01:11.130Z,77.78
2023-04-22T17:03:38.000Z,75.53
2023-04-22T17:06:04.993Z,76.27
2023-04-22T17:08:31.776Z,75.67
2023-04-22T17:10:58.483Z,74.77
2023-04-22T17:13:25.187Z,73.75
2023-04-22T17:15:51.913Z,75.00
2023-04-22T17:18:18.684Z,74.03
2023-04-22T17:20:45.382Z,72.65
2023-04-22T17:23:12.179Z,71.78
2023-04-22T17:25:39.023Z,72.15
2023-04-22T17:28:05.830Z,70.83
2023-04-22T17:30:32.504Z,71.49
2023-04-22T17:32:59.281Z,70.02
2023-04-22T17:35:26.041Z,68.96
2023-04-22T17:37:52.856Z,69.39
2023-04-22T17:40:19.607Z,69.65
2023-04-22T17:42:46.651Z,68.88
2023-04-22T17:45:13.433Z,67.58
2023-04-22T17:47:40.147Z,67.29
2023-04-22T17:50:07.755Z,68.24
2023-04-22T17:52:35.073Z,92.86
2023-04-22T17:55:01.880Z,91.28
2023-04-22T17:57:28.657Z,84.87
2023-04-22T17:59:55.521Z,85.97
2023-04-22T18:02:22.462Z,82.17
2023-04-22T18:04:49.394Z,81.05
2023-04-22T18:07:16.357Z,80.01
2023-04-22T18:09:43.350Z,79.55
2023-04-22T18:12:10.464Z,77.67
2023-04-22T18:14:37.229Z,76.39
2023-04-22T18:17:04.302Z,76.86
2023-04-22T18:19:31.213Z,76.53
2023-04-22T18:22:00.377Z,74.00
2023-04-22T18:24:27.965Z,75.14
2023-04-22T18:26:54.778Z,74.01
2023-04-22T18:29:21.330Z,73.31
2023-04-22T18:31:48.063Z,72.74
2023-04-22T18:34:15.057Z,72.19
2023-04-22T18:36:41.934Z,71.90
2023-04-22T18:39:08.755Z,70.60
2023-04-22T18:41:35.606Z,70.48
2023-04-22T18:44:02.427Z,69.70
2023-04-22T18:46:29.203Z,70.65
2023-04-22T18:48:55.991Z,69.26
2023-04-22T18:51:22.909Z,68.06
2023-04-22T18:53:49.741Z,68.28
2023-04-22T18:56:19.216Z,67.79
2023-04-22T18:58:50.100Z,66.77
2023-04-22T19:01:17.086Z,67.19
2023-04-22T19:03:43.971Z,64.67
2023-04-22T19:06:11.762Z,66.96
2023-04-22T19:08:38.546Z,65.47
2023-04-22T19:11:05.476Z,65.72
2023-04-22T19:13:32.285Z,65.76
2023-04-22T19:15:59.009Z,63.72
2023-04-22T19:18:25.835Z,63.33
2023-04-22T19:20:52.546Z,62.87
2023-04-22T19:23:22.049Z,62.75
2023-04-22T19:25:49.308Z,63.28
2023-04-22T19:28:16.106Z,61.55
2023-04-22T19:30:43.181Z,61.66
2023-04-22T19:33:09.697Z,62.53
2023-04-22T19:35:36.460Z,61.77
2023-04-22T19:38:05.830Z,59.65
2023-04-22T19:40:32.627Z,60.20
2023-04-22T19:42:59.349Z,59.52
2023-04-22T19:45:26.544Z,59.23
2023-04-22T19:47:53.729Z,58.07
2023-04-22T19:50:20.661Z,58.86
2023-04-22T19:52:47.636Z,58.32
2023-04-22T19:55:14.462Z,58.30
2023-04-22T19:57:41.260Z,58.05
2023-04-22T20:00:08.767Z,56.53
2023-04-22T20:02:35.945Z,57.01
2023-04-22T20:05:03.221Z,56.79
2023-04-22T20:07:30.039Z,55.95
2023-04-22T20:09:56.858Z,55.66
2023-04-22T20:12:23.697Z,55.40
2023-04-22T20:14:50.499Z,54.98
2023-04-22T20:17:17.449Z,55.13
2023-04-22T20:19:44.311Z,53.78
2023-04-22T20:22:13.062Z,53.86
2023-04-22T20:24:41.507Z,54.19
2023-04-22T20:27:08.362Z,54.40
2023-04-22T20:29:35.254Z,53.23
2023-04-22T20:32:02.070Z,53.44
2023-04-22T20:34:29.103Z,53.85
2023-04-22T20:36:55.970Z,53.79
2023-04-22T20:39:22.715Z,52.64
2023-04-22T20:41:49.458Z,52.77
2023-04-22T20:44:16.158Z,52.82
2023-04-22T20:46:42.917Z,51.76
2023-04-22T20:49:09.696Z,52.06
2023-04-22T20:51:36.531Z,52.27
2023-04-22T20:54:03.859Z,52.25
2023-04-22T20:56:31.533Z,51.19
2023-04-22T20:58:58.646Z,51.15
2023-04-22T21:01:25.473Z,51.00
2023-04-22T21:03:52.507Z,51.59
2023-04-22T21:06:19.776Z,50.67
2023-04-22T21:08:47.734Z,51.39
2023-04-22T21:11:14.721Z,50.69
2023-04-22T21:13:45.146Z,50.49
2023-04-22T21:16:13.357Z,50.17
2023-04-22T21:18:40.736Z,50.39
2023-04-22T21:21:08.086Z,49.98
2023-04-22T21:23:35.017Z,49.56
2023-04-22T21:26:02.001Z,49.09
2023-04-22T21:28:29.186Z,49.50
2023-04-22T21:30:56.356Z,49.11
2023-04-22T21:33:23.233Z,49.12
2023-04-22T21:35:50.037Z,49.52
2023-04-22T21:38:16.796Z,48.83
2023-04-22T21:40:43.616Z,48.66
2023-04-22T21:43:10.417Z,48.65
2023-04-22T21:45:37.146Z,48.47
2023-04-22T21:48:04.139Z,47.75
2023-04-22T21:50:31.498Z,49.60
2023-04-22T21:52:58.320Z,48.69
2023-04-22T21:55:25.121Z,48.63
2023-04-22T21:57:52.031Z,48.53
2023-04-22T22:00:19.849Z,47.66
2023-04-22T22:02:47.632Z,47.59
2023-04-22T22:05:15.094Z,47.34
2023-04-22T22:07:42.241Z,46.71
2023-04-22T22:10:14.574Z,46.32
2023-04-22T22:12:41.396Z,46.41
2023-04-22T22:15:08.688Z,46.45
2023-04-22T22:17:35.860Z,46.15
2023-04-22T22:20:02.606Z,45.56
2023-04-22T22:22:29.774Z,45.65
2023-04-22T22:24:56.613Z,46.65
2023-04-22T22:27:23.575Z,46.22
2023-04-22T22:29:50.335Z,45.67
2023-04-22T22:32:17.131Z,45.65
2023-04-22T22:34:43.855Z,45.30
2023-04-22T22:37:10.656Z,45.84
2023-04-22T22:39:37.468Z,45.22
2023-04-22T22:42:04.308Z,45.80
2023-04-22T22:44:32.045Z,45.87
2023-04-22T22:46:58.855Z,45.27
2023-04-22T22:49:25.656Z,44.49
2023-04-22T22:51:52.414Z,45.27
2023-04-22T22:54:19.214Z,44.20
2023-04-22T22:56:46.059Z,43.35
2023-04-22T22:59:12.881Z,44.06
2023-04-22T23:01:39.698Z,44.25
2023-04-22T23:04:06.916Z,44.61
2023-04-22T23:06:37.030Z,44.13
2023-04-22T23:09:03.885Z,43.35
2023-04-22T23:11:30.640Z,43.91
2023-04-22T23:13:57.440Z,44.20
2023-04-22T23:16:24.278Z,43.43
2023-04-22T23:18:51.139Z,43.24
2023-04-22T23:21:17.871Z,42.55
2023-04-22T23:23:44.675Z,42.98
2023-04-22T23:26:11.909Z,43.17
2023-04-22T23:28:38.921Z,41.66
2023-04-22T23:31:06.471Z,41.64
2023-04-22T23:33:34.694Z,41.90
2023-04-22T23:36:01.508Z,42.23
2023-04-22T23:38:28.224Z,41.60
2023-04-22T23:40:54.966Z,41.75
2023-04-22T23:43:21.691Z,41.86
2023-04-22T23:45:48.575Z,41.51
2023-04-22T23:48:15.453Z,40.86
2023-04-22T23:50:42.221Z,40.62
2023-04-22T23:53:08.956Z,40.63
2023-04-22T23:55:36.407Z,40.73
2023-04-22T23:58:03.222Z,40.18
